createdAt,value
2023-01-07T09:16:52.059Z,97134.94
2023-01-07T09:19:19.693Z,97122.94
2023-01-07T09:21:46.706Z,97115.41
2023-01-07T09:24:13.657Z,97113.84
2023-01-07T09:26:40.739Z,97116.34
2023-01-07T09:29:07.702Z,97118.41
2023-01-07T09:31:34.702Z,97120.66
2023-01-07T09:34:01.702Z,97116.19
2023-01-07T09:36:28.691Z,97118.91
2023-01-07T09:38:55.684Z,97117.00
2023-01-07T09:41:41.386Z,97113.50
2023-01-07T09:44:19.951Z,97116.97
2023-01-07T09:46:46.939Z,97111.34
2023-01-07T09:49:18.351Z,97101.44
2023-01-07T09:51:48.495Z,97109.44
2023-01-07T09:54:21.984Z,97100.97
2023-01-07T09:56:48.960Z,97092.97
2023-01-07T09:59:15.932Z,97093.75
2023-01-07T10:01:44.535Z,97086.50
2023-01-07T10:04:36.249Z,97094.84
2023-01-07T10:07:13.208Z,97079.63
2023-01-07T10:09:58.465Z,97077.97
2023-01-07T10:12:31.358Z,97076.91
2023-01-07T10:15:16.023Z,97076.94
2023-01-07T10:17:48.866Z,97065.69
2023-01-07T10:20:26.848Z,97067.34
2023-01-07T10:23:05.845Z,97063.03
2023-01-07T10:25:40.294Z,97051.84
2023-01-07T10:28:10.354Z,97048.66
2023-01-07T10:30:41.738Z,97047.59
2023-01-07T10:33:31.212Z,97044.63
2023-01-07T10:36:23.988Z,97049.72
2023-01-07T10:39:01.975Z,97046.31
2023-01-07T10:41:56.708Z,97046.47
2023-01-07T10:44:26.577Z,97036.94
2023-01-07T10:47:32.651Z,97030.81
2023-01-07T10:50:24.416Z,97026.53
2023-01-07T10:53:17.919Z,97015.53
2023-01-07T10:55:50.104Z,97019.81
2023-01-07T10:58:16.893Z,97016.66
2023-01-07T11:00:48.551Z,97017.94
2023-01-07T11:03:21.139Z,97016.66
2023-01-07T11:05:54.368Z,97013.44
2023-01-07T11:08:41.418Z,97008.66
2023-01-07T11:11:14.637Z,97004.91
2023-01-07T11:13:42.214Z,97004.38
2023-01-07T11:16:13.974Z,96995.06
2023-01-07T11:18:46.923Z,96987.28
2023-01-07T11:21:43.521Z,96989.72
2023-01-07T11:24:23.571Z,96963.13
2023-01-07T11:26:50.499Z,96969.00
2023-01-07T11:29:23.057Z,96963.81
2023-01-07T11:31:54.998Z,96950.50
2023-01-07T11:34:32.610Z,96948.28
2023-01-07T11:36:59.620Z,96937.03
2023-01-07T11:39:32.107Z,96947.78
2023-01-07T11:42:37.288Z,96936.06
2023-01-07T11:45:14.485Z,96927.16
2023-01-07T11:47:46.267Z,96923.03
2023-01-07T11:50:37.101Z,96914.59
2023-01-07T11:53:13.579Z,96908.91
2023-01-07T11:56:01.273Z,96905.75
2023-01-07T11:58:33.032Z,96902.50
2023-01-07T12:01:09.203Z,96894.44
2023-01-07T12:03:43.518Z,96895.94
2023-01-07T12:06:19.905Z,96895.28
2023-01-07T12:08:55.133Z,96887.47
2023-01-07T12:11:22.141Z,96885.50
2023-01-07T12:13:53.098Z,96883.91
2023-01-07T12:16:25.399Z,96874.66
2023-01-07T12:19:13.899Z,96872.03
2023-01-07T12:21:52.558Z,96882.81
2023-01-07T12:24:37.803Z,96879.38
2023-01-07T12:27:38.710Z,96873.16
2023-01-07T12:30:30.090Z,96871.09
2023-01-07T12:33:41.213Z,96875.09
2023-01-07T12:36:18.581Z,96876.31
2023-01-07T12:38:50.755Z,96877.81
2023-01-07T12:41:29.624Z,96874.25
2023-01-07T12:44:13.714Z,96866.00
2023-01-07T12:46:47.607Z,96869.81
2023-01-07T12:49:20.212Z,96863.19
2023-01-07T12:51:55.299Z,96860.31
2023-01-07T12:54:44.596Z,96861.13
2023-01-07T12:57:15.110Z,96857.97
2023-01-07T12:59:48.569Z,96858.75
2023-01-07T13:02:33.897Z,96860.41
2023-01-07T13:05:14.305Z,96857.66
2023-01-07T13:07:50.291Z,96849.28
2023-01-07T13:10:19.700Z,96848.25
2023-01-07T13:12:47.542Z,96852.44
2023-01-07T13:15:28.341Z,96848.38
2023-01-07T13:17:56.679Z,96847.22
2023-01-07T13:20:51.279Z,96848.53
2023-01-07T13:23:33.178Z,96844.47
2023-01-07T13:26:09.139Z,96843.41
2023-01-07T13:29:05.527Z,96838.84
2023-01-07T13:31:59.045Z,96842.13
2023-01-07T13:34:52.547Z,96839.91
2023-01-07T13:37:27.063Z,96839.25
2023-01-07T13:40:20.244Z,96833.84
2023-01-07T13:42:54.700Z,96833.94
2023-01-07T13:45:49.088Z,96834.66
2023-01-07T13:48:23.325Z,96836.41
2023-01-07T13:51:01.205Z,96824.88
2023-01-07T13:53:42.954Z,96838.44
2023-01-07T13:56:18.793Z,96833.75
2023-01-07T13:58:49.768Z,96829.75
2023-01-07T14:01:17.269Z,96823.72
2023-01-07T14:04:07.194Z,96831.31
2023-01-07T14:06:39.206Z,96824.94
2023-01-07T14:09:11.143Z,96819.00
2023-01-07T14:11:42.162Z,96821.13
2023-01-07T14:14:19.128Z,96824.38
2023-01-07T14:17:10.349Z,96825.69
2023-01-07T14:19:59.968Z,96815.34
2023-01-07T14:22:35.872Z,96819.06
2023-01-07T14:25:03.059Z,96817.78
2023-01-07T14:27:39.266Z,96814.78
2023-01-07T14:30:34.141Z,96822.81
2023-01-07T14:33:04.634Z,96821.28
2023-01-07T14:35:35.275Z,96812.84
2023-01-07T14:38:09.195Z,96812.53
2023-01-07T14:40:37.434Z,96815.50
2023-01-07T14:43:28.273Z,96816.28
2023-01-07T14:45:55.456Z,96816.41
2023-01-07T14:48:30.667Z,96813.69
2023-01-07T14:51:27.430Z,96810.56
2023-01-07T14:54:18.847Z,96809.09
2023-01-07T14:57:36.018Z,96811.47
2023-01-07T15:00:02.994Z,96810.81
2023-01-07T15:02:55.518Z,96815.50
2023-01-07T15:05:47.430Z,96814.47
2023-01-07T15:08:33.544Z,96818.66
2023-01-07T15:11:19.126Z,96806.31
2023-01-07T15:14:12.970Z,96812.38
2023-01-07T15:16:39.943Z,96813.22
2023-01-07T15:19:08.444Z,96818.47
2023-01-07T15:21:59.437Z,96813.31
2023-01-07T15:24:44.855Z,96820.69
2023-01-07T15:27:53.383Z,96821.00
2023-01-07T15:30:26.046Z,96818.34
2023-01-07T15:33:32.115Z,96818.28
2023-01-07T15:35:59.118Z,96806.50
2023-01-07T15:38:31.419Z,96807.81
2023-01-07T15:40:59.256Z,96807.66
2023-01-07T15:43:27.905Z,96804.19
2023-01-07T15:46:04.928Z,96811.34
2023-01-07T15:48:31.883Z,96815.84
2023-01-07T15:51:00.384Z,96817.00
2023-01-07T15:53:28.867Z,96808.72
2023-01-07T15:56:06.575Z,96819.94
2023-01-07T15:58:44.813Z,96809.75
2023-01-07T16:01:22.543Z,96814.72
2023-01-07T16:03:50.818Z,96813.84
2023-01-07T16:06:33.881Z,96809.63
2023-01-07T16:09:16.382Z,96805.81
2023-01-07T16:11:43.388Z,96802.19
2023-01-07T16:14:24.122Z,96798.09
2023-01-07T16:17:13.509Z,96777.66
2023-01-07T16:19:40.496Z,96784.72
2023-01-07T16:22:07.429Z,96786.38
2023-01-07T16:24:34.448Z,96796.03
2023-01-07T16:27:05.116Z,96783.16
2023-01-07T16:29:38.019Z,96783.06
2023-01-07T16:32:06.691Z,96781.84
2023-01-07T16:34:33.544Z,96782.88
2023-01-07T16:37:00.648Z,96797.75
2023-01-07T16:39:32.206Z,96785.88
2023-01-07T16:42:34.634Z,96788.38
2023-01-07T16:45:01.864Z,96781.00
2023-01-07T16:47:32.875Z,96778.84
2023-01-07T16:50:20.176Z,96784.94
2023-01-07T16:52:54.618Z,96782.25
2023-01-07T16:55:46.699Z,96783.25
2023-01-07T16:58:41.133Z,96789.69
2023-01-07T17:01:08.610Z,96785.84
2023-01-07T17:03:49.327Z,96787.72
2023-01-07T17:06:16.320Z,96788.88
2023-01-07T17:08:48.106Z,96793.19
2023-01-07T17:11:37.936Z,96779.91
2023-01-07T17:14:05.243Z,96782.84
2023-01-07T17:16:33.352Z,96778.59
2023-01-07T17:19:25.606Z,96781.28
2023-01-07T17:21:53.336Z,96775.69
2023-01-07T17:24:30.433Z,96779.16
2023-01-07T17:27:02.440Z,96779.44
2023-01-07T17:29:34.897Z,96775.66
2023-01-07T17:32:03.542Z,96787.13
2023-01-07T17:34:30.537Z,96784.19
2023-01-07T17:36:57.496Z,96784.72
2023-01-07T17:39:24.402Z,96790.81
2023-01-07T17:42:10.155Z,96787.28
2023-01-07T17:44:37.189Z,96794.16
2023-01-07T17:47:04.196Z,96797.59
2023-01-07T17:49:31.293Z,96803.94
2023-01-07T17:51:58.381Z,96803.78
2023-01-07T17:54:25.386Z,96799.97
2023-01-07T17:56:52.660Z,96802.72
2023-01-07T17:59:21.633Z,96802.34
2023-01-07T18:01:49.206Z,96799.28
2023-01-07T18:04:17.660Z,96799.41
2023-01-07T18:06:45.005Z,96795.16
2023-01-07T18:09:13.714Z,96796.03
2023-01-07T18:12:02.613Z,96797.41
2023-01-07T18:14:29.562Z,96792.34
2023-01-07T18:16:57.009Z,96797.13
2023-01-07T18:19:23.948Z,96793.38
